createdAt,value
2019-04-03T05:01:22.124Z,77.00
2019-04-03T05:03:53.898Z,76.10
2019-04-03T05:06:23.738Z,76.20
2019-04-03T05:08:53.712Z,75.20
2019-04-03T05:11:23.884Z,75.80
2019-04-03T05:13:53.983Z,76.10
2019-04-03T05:16:25.021Z,75.70
2019-04-03T05:19:08.179Z,75.80
2019-04-03T05:21:27.294Z,75.90
2019-04-03T05:24:10.151Z,74.70
2019-04-03T05:26:28.854Z,74.20
2019-04-03T05:28:58.839Z,74.10
2019-04-03T05:31:28.819Z,74.10
2019-04-03T05:33:58.893Z,74.10
2019-04-03T05:36:28.844Z,74.10
2019-04-03T05:38:58.849Z,74.60
2019-04-03T05:41:28.823Z,75.10
2019-04-03T05:44:01.451Z,74.30
2019-04-03T05:46:30.383Z,73.30
2019-04-03T05:49:00.376Z,73.80
2019-04-03T05:51:30.390Z,73.40
2019-04-03T05:54:00.355Z,73.40
2019-04-03T05:56:30.555Z,73.80
2019-04-03T05:59:02.413Z,73.60
2019-04-03T06:01:32.361Z,72.70
2019-04-03T06:04:03.465Z,72.50
2019-04-03T06:06:33.548Z,71.70
2019-04-03T06:09:06.061Z,71.80
2019-04-03T06:11:36.035Z,72.10
2019-04-03T06:14:08.474Z,72.10
2019-04-03T06:16:37.650Z,72.20
2019-04-03T06:19:07.587Z,71.60
2019-04-03T06:21:37.534Z,72.00
2019-04-03T06:24:07.533Z,71.80
2019-04-03T06:26:38.439Z,71.80
2019-04-03T06:29:08.575Z,70.90
2019-04-03T06:31:38.575Z,70.50
2019-04-03T06:34:08.653Z,70.00
2019-04-03T06:36:38.681Z,70.10
2019-04-03T06:39:08.941Z,69.40
2019-04-03T06:41:41.494Z,69.10
2019-04-03T06:44:10.491Z,68.90
2019-04-03T06:46:40.440Z,69.00
2019-04-03T06:49:10.437Z,69.70
2019-04-03T06:51:40.447Z,69.00
2019-04-03T06:54:10.612Z,69.00
2019-04-03T06:56:41.330Z,67.70
2019-04-03T06:59:11.534Z,67.50
2019-04-03T07:01:41.453Z,67.40
2019-04-03T07:04:11.432Z,67.00
2019-04-03T07:06:42.818Z,66.70
2019-04-03T07:09:22.658Z,68.30
2019-04-03T07:11:45.285Z,67.00
2019-04-03T07:14:15.260Z,67.50
2019-04-03T07:16:45.489Z,67.00
2019-04-03T07:19:15.546Z,66.10
2019-04-03T07:21:46.778Z,65.50
2019-04-03T07:24:16.866Z,64.30
2019-04-03T07:26:48.178Z,63.30
2019-04-03T07:29:19.929Z,62.70
2019-04-03T07:31:50.310Z,61.90
2019-04-03T07:34:20.580Z,61.30
2019-04-03T07:36:50.825Z,60.40
2019-04-03T07:39:20.794Z,59.10
2019-04-03T07:41:53.299Z,59.00
2019-04-03T07:44:22.391Z,58.70
2019-04-03T07:46:54.756Z,58.20
2019-04-03T07:49:24.036Z,58.30
2019-04-03T07:51:54.213Z,58.40
2019-04-03T07:54:26.333Z,57.80
2019-04-03T07:56:57.353Z,58.10
2019-04-03T07:59:27.525Z,57.30
2019-04-03T08:01:57.493Z,56.70
2019-04-03T08:04:27.624Z,56.70
2019-04-03T08:06:59.074Z,55.40
2019-04-03T08:09:29.062Z,55.80
2019-04-03T08:11:59.024Z,54.90
2019-04-03T08:14:29.106Z,54.50
2019-04-03T08:16:59.472Z,54.70
2019-04-03T08:19:29.894Z,54.70
2019-04-03T08:22:01.876Z,54.40
2019-04-03T08:24:31.626Z,53.90
2019-04-03T08:27:01.635Z,53.10
2019-04-03T08:29:33.466Z,53.00
2019-04-03T08:32:03.196Z,52.80
2019-04-03T08:34:33.165Z,53.30
2019-04-03T08:37:03.154Z,52.70
2019-04-03T08:39:33.215Z,51.80
2019-04-03T08:42:04.580Z,51.20
2019-04-03T08:44:35.798Z,52.30
2019-04-03T08:47:06.057Z,50.20
2019-04-03T08:49:36.032Z,51.00
2019-04-03T08:52:06.211Z,49.60
2019-04-03T08:54:36.194Z,51.40
2019-04-03T08:57:06.201Z,50.90
2019-04-03T08:59:36.173Z,48.60
2019-04-03T09:02:07.869Z,46.20
2019-04-03T09:04:37.917Z,45.90
2019-04-03T09:07:08.915Z,45.10
2019-04-03T09:09:39.930Z,46.60
2019-04-03T09:12:09.916Z,44.20
2019-04-03T09:14:39.903Z,43.70
2019-04-03T09:17:09.880Z,42.60
2019-04-03T09:19:41.747Z,43.60
2019-04-03T09:22:45.839Z,42.10
2019-04-03T09:25:16.493Z,41.60
2019-04-03T09:27:46.487Z,42.50
2019-04-03T09:30:17.379Z,44.60
2019-04-03T09:32:47.518Z,46.80
2019-04-03T09:35:17.595Z,47.30
2019-04-03T09:37:47.833Z,43.70
2019-04-03T09:40:18.368Z,42.50
2019-04-03T09:42:49.818Z,43.90
2019-04-03T09:45:20.244Z,42.80
2019-04-03T09:47:50.280Z,48.30
2019-04-03T09:50:22.033Z,44.20
2019-04-03T09:52:54.201Z,42.70
2019-04-03T09:55:23.530Z,41.20
2019-04-03T09:57:53.497Z,42.20
2019-04-03T10:00:24.335Z,42.70
2019-04-03T10:02:54.354Z,42.00
2019-04-03T10:05:24.301Z,43.40
2019-04-03T10:07:54.261Z,39.80
2019-04-03T10:10:25.894Z,37.90
2019-04-03T10:12:55.907Z,39.10
